createdAt,value
2016-12-11T00:00:23.244Z,0
2016-12-11T00:01:04.002Z,0
2016-12-11T00:01:44.756Z,0
2016-12-11T00:02:26.535Z,0
2016-12-11T00:03:07.327Z,0
2016-12-11T00:03:48.103Z,0
2016-12-11T00:04:28.881Z,0
2016-12-11T00:05:09.640Z,0
2016-12-11T00:05:50.399Z,0
2016-12-11T00:06:31.147Z,0
2016-12-11T00:07:11.925Z,0
2016-12-11T00:07:52.656Z,0
2016-12-11T00:08:33.440Z,0
2016-12-11T00:09:14.221Z,0
2016-12-11T00:09:54.987Z,0
2016-12-11T00:10:35.747Z,0
2016-12-11T00:11:16.515Z,0
2016-12-11T00:11:57.267Z,0
2016-12-11T00:12:38.048Z,0
2016-12-11T00:13:18.805Z,0
2016-12-11T00:13:59.562Z,0
2016-12-11T00:14:40.334Z,0
2016-12-11T00:15:21.097Z,0
2016-12-11T00:16:01.861Z,0
2016-12-11T00:16:42.625Z,0
2016-12-11T00:17:23.396Z,0
2016-12-11T00:18:04.143Z,0
2016-12-11T00:18:44.908Z,0
2016-12-11T00:19:25.693Z,0
2016-12-11T00:20:06.430Z,0
2016-12-11T00:20:47.170Z,0
2016-12-11T00:21:27.941Z,0
2016-12-11T00:22:08.737Z,0
2016-12-11T00:22:49.506Z,0
2016-12-11T00:23:30.286Z,0
2016-12-11T00:24:11.040Z,0
2016-12-11T00:24:51.798Z,0
2016-12-11T00:25:32.606Z,0
2016-12-11T00:26:13.364Z,0
2016-12-11T00:26:54.165Z,0
2016-12-11T00:27:34.910Z,0
2016-12-11T00:28:15.690Z,0
2016-12-11T00:28:56.454Z,0
2016-12-11T00:29:37.199Z,0
2016-12-11T00:30:17.940Z,0
2016-12-11T00:30:58.708Z,0
2016-12-11T00:31:39.464Z,0
2016-12-11T00:32:20.220Z,0
2016-12-11T00:33:00.965Z,0
2016-12-11T00:33:41.725Z,0
2016-12-11T00:34:22.484Z,0
2016-12-11T00:35:03.259Z,0
2016-12-11T00:35:44.043Z,0
2016-12-11T00:36:24.808Z,0
2016-12-11T00:37:05.561Z,0
2016-12-11T00:37:46.329Z,0
2016-12-11T00:38:27.098Z,0
2016-12-11T00:39:07.859Z,0
2016-12-11T00:39:48.615Z,0
2016-12-11T00:40:29.361Z,0
2016-12-11T00:41:10.126Z,0
2016-12-11T00:41:50.893Z,0
2016-12-11T00:42:31.661Z,0
2016-12-11T00:43:12.415Z,0
2016-12-11T00:43:53.168Z,0
2016-12-11T00:44:33.946Z,0
2016-12-11T00:45:14.723Z,0
2016-12-11T00:45:55.480Z,0
2016-12-11T00:46:36.249Z,0
2016-12-11T00:47:17.013Z,0
2016-12-11T00:47:57.780Z,0
2016-12-11T00:48:38.529Z,0
2016-12-11T00:49:19.264Z,0
2016-12-11T00:50:00.039Z,0
2016-12-11T00:50:40.809Z,0
2016-12-11T00:51:21.587Z,0
2016-12-11T00:52:02.357Z,0
2016-12-11T00:52:43.095Z,0
2016-12-11T00:53:23.828Z,0
2016-12-11T00:54:04.605Z,0
2016-12-11T00:54:45.391Z,0
2016-12-11T00:55:26.161Z,0
2016-12-11T00:56:06.934Z,0
2016-12-11T00:56:47.693Z,0
2016-12-11T00:57:28.463Z,0
2016-12-11T00:58:09.251Z,0
2016-12-11T00:58:50.032Z,0
2016-12-11T00:59:30.792Z,0
2016-12-11T01:00:11.525Z,0
2016-12-11T01:00:52.295Z,0
2016-12-11T01:01:33.060Z,0
2016-12-11T01:02:13.823Z,0
2016-12-11T01:02:54.585Z,0
2016-12-11T01:03:35.367Z,0
2016-12-11T01:04:16.127Z,0
2016-12-11T01:04:56.904Z,0
2016-12-11T01:05:37.664Z,0
2016-12-11T01:06:18.438Z,0
2016-12-11T01:06:59.213Z,0
2016-12-11T01:07:39.995Z,0
2016-12-11T01:08:20.779Z,0
2016-12-11T01:09:01.525Z,0
2016-12-11T01:09:42.254Z,0
2016-12-11T01:10:23.025Z,0
2016-12-11T01:11:03.786Z,0
2016-12-11T01:11:44.519Z,0
2016-12-11T01:12:25.291Z,0
2016-12-11T01:13:06.052Z,0
2016-12-11T01:13:46.796Z,0
2016-12-11T01:14:27.584Z,0
2016-12-11T01:15:08.328Z,0
2016-12-11T01:15:49.081Z,0
2016-12-11T01:16:29.833Z,0
2016-12-11T01:17:10.592Z,0
2016-12-11T01:17:51.355Z,0
2016-12-11T01:18:32.126Z,0
2016-12-11T01:19:12.905Z,0
2016-12-11T01:19:53.653Z,0
2016-12-11T01:20:34.400Z,0
2016-12-11T01:21:15.151Z,0
2016-12-11T01:21:56.541Z,0
2016-12-11T01:22:37.322Z,0
2016-12-11T01:23:18.103Z,0
2016-12-11T01:23:58.866Z,0
2016-12-11T01:24:39.629Z,0
2016-12-11T01:25:21.040Z,0
2016-12-11T01:26:01.813Z,0
2016-12-11T01:26:42.570Z,0
2016-12-11T01:27:23.323Z,0
2016-12-11T01:28:04.093Z,0
2016-12-11T01:28:44.868Z,0
2016-12-11T01:29:25.635Z,0
2016-12-11T01:30:06.410Z,0
2016-12-11T01:30:47.179Z,0
2016-12-11T01:31:27.931Z,0
2016-12-11T01:32:08.723Z,0
2016-12-11T01:32:49.494Z,0
2016-12-11T01:33:30.256Z,0
2016-12-11T01:34:11.063Z,0
2016-12-11T01:34:51.808Z,0
2016-12-11T01:35:32.571Z,0
2016-12-11T01:36:13.334Z,0
2016-12-11T01:36:54.091Z,0
2016-12-11T01:37:34.841Z,0
2016-12-11T01:38:15.607Z,0
2016-12-11T01:38:56.387Z,0
2016-12-11T01:39:37.156Z,0
2016-12-11T01:40:17.915Z,0
2016-12-11T01:40:58.676Z,0
2016-12-11T01:41:39.448Z,0
2016-12-11T01:42:20.258Z,0
2016-12-11T01:43:01.036Z,0
2016-12-11T01:43:41.781Z,0
2016-12-11T01:44:22.539Z,0
2016-12-11T01:45:03.291Z,0
2016-12-11T01:45:44.078Z,0
2016-12-11T01:46:24.831Z,0
2016-12-11T01:47:05.604Z,0
2016-12-11T01:47:46.352Z,0
2016-12-11T01:48:27.134Z,0
2016-12-11T01:49:07.905Z,0
2016-12-11T01:49:48.662Z,0
2016-12-11T01:50:29.416Z,0
2016-12-11T01:51:10.155Z,0
2016-12-11T01:51:50.899Z,0
2016-12-11T01:52:32.417Z,0
2016-12-11T01:53:13.175Z,0
2016-12-11T01:53:53.938Z,0
2016-12-11T01:54:34.688Z,0
2016-12-11T01:55:15.480Z,0
2016-12-11T01:55:56.238Z,0
2016-12-11T01:56:36.986Z,0
2016-12-11T01:57:17.740Z,0
2016-12-11T01:57:58.512Z,0
2016-12-11T01:58:39.274Z,0
2016-12-11T01:59:20.041Z,0
2016-12-11T02:00:00.795Z,0
2016-12-11T02:00:41.562Z,0
2016-12-11T02:01:22.333Z,0
2016-12-11T02:02:03.101Z,0
2016-12-11T02:02:43.884Z,0
2016-12-11T02:03:24.632Z,0
2016-12-11T02:04:05.379Z,0
2016-12-11T02:04:46.152Z,0
2016-12-11T02:05:26.957Z,0
2016-12-11T02:06:07.733Z,0
2016-12-11T02:06:48.475Z,0
2016-12-11T02:07:29.228Z,0
2016-12-11T02:08:09.974Z,0
2016-12-11T02:08:50.759Z,0
2016-12-11T02:09:31.540Z,0
2016-12-11T02:10:12.297Z,0
2016-12-11T02:10:53.071Z,0
2016-12-11T02:11:33.830Z,0
2016-12-11T02:12:14.582Z,0
2016-12-11T02:12:55.341Z,0
2016-12-11T02:13:36.088Z,0
2016-12-11T02:14:16.860Z,0
2016-12-11T02:14:57.610Z,0
2016-12-11T02:15:38.362Z,0
2016-12-11T02:16:19.128Z,0
2016-12-11T02:16:59.911Z,0
2016-12-11T02:17:40.676Z,0
2016-12-11T02:18:21.467Z,0
2016-12-11T02:19:02.240Z,0
2016-12-11T02:19:42.974Z,0
2016-12-11T02:20:23.722Z,0
2016-12-11T02:21:04.495Z,0
2016-12-11T02:21:45.272Z,0
2016-12-11T02:22:26.036Z,0
2016-12-11T02:23:06.811Z,0
2016-12-11T02:23:47.547Z,0
2016-12-11T02:24:28.308Z,0
2016-12-11T02:25:09.095Z,0
2016-12-11T02:25:49.866Z,0
2016-12-11T02:26:30.603Z,0
2016-12-11T02:27:11.378Z,0
2016-12-11T02:27:52.149Z,0
2016-12-11T02:28:32.913Z,0
2016-12-11T02:29:13.680Z,0
2016-12-11T02:29:54.453Z,0
2016-12-11T02:30:35.204Z,0
2016-12-11T02:31:15.953Z,0
2016-12-11T02:31:56.728Z,0
2016-12-11T02:32:37.481Z,0
2016-12-11T02:33:18.239Z,0
2016-12-11T02:33:59.018Z,0
2016-12-11T02:34:39.756Z,0
2016-12-11T02:35:20.519Z,0
2016-12-11T02:36:01.291Z,0
2016-12-11T02:36:42.031Z,0
2016-12-11T02:37:22.787Z,0
2016-12-11T02:38:03.536Z,0
2016-12-11T02:38:44.310Z,0
2016-12-11T02:39:25.069Z,0
2016-12-11T02:40:05.837Z,0
2016-12-11T02:40:46.588Z,0
2016-12-11T02:41:27.331Z,0
2016-12-11T02:42:08.086Z,0
2016-12-11T02:42:48.851Z,0
2016-12-11T02:43:29.618Z,0
2016-12-11T02:44:10.369Z,0
2016-12-11T02:44:51.124Z,0
2016-12-11T02:45:31.858Z,0
2016-12-11T02:46:12.620Z,0
2016-12-11T02:46:53.383Z,0
2016-12-11T02:47:34.127Z,0
2016-12-11T02:48:14.904Z,0
2016-12-11T02:48:55.682Z,0
2016-12-11T02:49:36.434Z,0
2016-12-11T02:50:17.191Z,0
2016-12-11T02:50:57.941Z,0
2016-12-11T02:51:38.705Z,0
2016-12-11T02:52:19.465Z,0
2016-12-11T02:53:00.229Z,0
2016-12-11T02:53:41.002Z,0
2016-12-11T02:54:21.747Z,0
2016-12-11T02:55:02.507Z,0
2016-12-11T02:55:43.265Z,0
2016-12-11T02:56:24.053Z,0
2016-12-11T02:57:04.820Z,0
2016-12-11T02:57:45.572Z,0
2016-12-11T02:58:26.319Z,0
2016-12-11T02:59:07.070Z,0
2016-12-11T02:59:47.830Z,0
2016-12-11T03:00:28.593Z,0
2016-12-11T03:01:09.371Z,0
2016-12-11T03:01:50.115Z,0
2016-12-11T03:02:30.867Z,0
2016-12-11T03:03:11.635Z,0
2016-12-11T03:03:52.395Z,0
2016-12-11T03:04:33.134Z,0
2016-12-11T03:05:13.885Z,0
2016-12-11T03:05:54.658Z,0
2016-12-11T03:06:35.420Z,0
2016-12-11T03:07:16.193Z,0
2016-12-11T03:07:56.970Z,0
2016-12-11T03:08:37.754Z,0
2016-12-11T03:09:18.533Z,0
2016-12-11T03:09:59.285Z,0
2016-12-11T03:10:40.052Z,0
2016-12-11T03:11:20.830Z,0
2016-12-11T03:12:01.601Z,0
2016-12-11T03:12:42.385Z,0
2016-12-11T03:13:23.143Z,0
2016-12-11T03:14:03.891Z,0
2016-12-11T03:14:44.649Z,0
2016-12-11T03:15:25.409Z,0
2016-12-11T03:16:06.165Z,0
2016-12-11T03:16:46.931Z,0
2016-12-11T03:17:27.681Z,0
2016-12-11T03:18:08.427Z,0
2016-12-11T03:18:49.205Z,0
2016-12-11T03:19:30.007Z,0
2016-12-11T03:20:10.768Z,0
2016-12-11T03:20:51.510Z,0
2016-12-11T03:21:32.284Z,0
2016-12-11T03:22:13.063Z,0
2016-12-11T03:22:53.820Z,0
2016-12-11T03:23:35.148Z,0
2016-12-11T03:24:15.919Z,0
2016-12-11T03:24:56.695Z,0
2016-12-11T03:25:37.461Z,0
2016-12-11T03:26:18.215Z,0
2016-12-11T03:26:58.960Z,0
2016-12-11T03:27:39.721Z,0
2016-12-11T03:28:20.498Z,0
2016-12-11T03:29:01.252Z,0
2016-12-11T03:29:42.017Z,0
2016-12-11T03:30:22.770Z,0
2016-12-11T03:31:03.534Z,0
2016-12-11T03:31:44.304Z,0
2016-12-11T03:32:25.113Z,0
2016-12-11T03:33:05.863Z,0
2016-12-11T03:33:46.609Z,0
2016-12-11T03:34:27.358Z,0
2016-12-11T03:35:08.104Z,0
2016-12-11T03:35:48.860Z,0
2016-12-11T03:36:29.653Z,0
2016-12-11T03:37:10.401Z,0
2016-12-11T03:37:51.134Z,0
2016-12-11T03:38:31.892Z,0
2016-12-11T03:39:12.654Z,0
2016-12-11T03:39:53.447Z,0
2016-12-11T03:40:34.198Z,0
2016-12-11T03:41:14.961Z,0
2016-12-11T03:41:55.713Z,0
2016-12-11T03:42:36.494Z,0
2016-12-11T03:43:17.260Z,0
2016-12-11T03:43:58.001Z,0
2016-12-11T03:44:38.788Z,0
2016-12-11T03:45:19.539Z,0
2016-12-11T03:46:00.297Z,0
2016-12-11T03:46:41.076Z,0
2016-12-11T03:47:21.850Z,0
2016-12-11T03:48:02.607Z,0
2016-12-11T03:48:43.371Z,0
2016-12-11T03:49:24.131Z,0
2016-12-11T03:50:04.856Z,0
2016-12-11T03:50:45.614Z,0
2016-12-11T03:51:26.387Z,0
2016-12-11T03:52:07.130Z,0
2016-12-11T03:52:47.885Z,0
2016-12-11T03:53:28.647Z,0
2016-12-11T03:54:09.417Z,0
2016-12-11T03:54:50.170Z,0
2016-12-11T03:55:30.949Z,0
2016-12-11T03:56:11.684Z,0
2016-12-11T03:56:52.462Z,0
2016-12-11T03:57:33.232Z,0
2016-12-11T03:58:13.983Z,0
2016-12-11T03:58:54.748Z,0
2016-12-11T03:59:35.522Z,0
2016-12-11T04:00:16.280Z,0
2016-12-11T04:00:57.034Z,0
2016-12-11T04:01:37.781Z,0
2016-12-11T04:02:18.560Z,0
2016-12-11T04:02:59.341Z,0
2016-12-11T04:03:40.140Z,0
2016-12-11T04:04:20.907Z,0
2016-12-11T04:05:01.640Z,0
2016-12-11T04:05:42.436Z,0
2016-12-11T04:06:23.196Z,0
2016-12-11T04:07:03.955Z,0
2016-12-11T04:07:44.727Z,0
2016-12-11T04:08:25.491Z,0
2016-12-11T04:09:06.257Z,0
2016-12-11T04:09:47.025Z,0
2016-12-11T04:10:27.829Z,0
2016-12-11T04:11:08.572Z,0
2016-12-11T04:11:49.337Z,0
2016-12-11T04:12:30.100Z,0
2016-12-11T04:13:10.851Z,0
2016-12-11T04:13:51.630Z,0
2016-12-11T04:14:32.377Z,0
2016-12-11T04:15:13.156Z,0
2016-12-11T04:15:53.929Z,0
2016-12-11T04:16:34.679Z,0
2016-12-11T04:17:15.448Z,0
2016-12-11T04:17:56.187Z,0
2016-12-11T04:18:36.948Z,0
2016-12-11T04:19:17.707Z,0
2016-12-11T04:19:58.477Z,0
2016-12-11T04:20:39.243Z,0
2016-12-11T04:21:19.988Z,0
2016-12-11T04:22:00.770Z,0
2016-12-11T04:22:41.536Z,0
2016-12-11T04:23:22.345Z,0
2016-12-11T04:24:03.096Z,0
2016-12-11T04:24:43.840Z,0
2016-12-11T04:25:24.598Z,0
2016-12-11T04:26:05.380Z,0
2016-12-11T04:26:46.147Z,0
2016-12-11T04:27:26.897Z,0
2016-12-11T04:28:07.660Z,0
2016-12-11T04:28:48.425Z,0
2016-12-11T04:29:29.196Z,0
2016-12-11T04:30:10.508Z,0
2016-12-11T04:30:51.292Z,0
2016-12-11T04:31:32.064Z,0
2016-12-11T04:32:12.881Z,0
2016-12-11T04:32:53.644Z,0
2016-12-11T04:33:34.393Z,0
2016-12-11T04:34:15.136Z,0
2016-12-11T04:34:55.895Z,0
2016-12-11T04:35:36.667Z,0
2016-12-11T04:36:17.436Z,0
2016-12-11T04:36:58.186Z,0
2016-12-11T04:37:38.974Z,0
2016-12-11T04:38:19.737Z,0
2016-12-11T04:39:00.493Z,0
2016-12-11T04:39:41.281Z,0
2016-12-11T04:40:22.038Z,0
2016-12-11T04:41:02.776Z,0
2016-12-11T04:41:43.532Z,0
2016-12-11T04:42:24.299Z,0
2016-12-11T04:43:05.081Z,0
2016-12-11T04:43:45.845Z,0
2016-12-11T04:44:26.596Z,0
2016-12-11T04:45:07.365Z,0
2016-12-11T04:45:48.100Z,0
2016-12-11T04:46:28.879Z,0
2016-12-11T04:47:09.635Z,0
2016-12-11T04:47:50.380Z,0
2016-12-11T04:48:31.135Z,0
2016-12-11T04:49:11.902Z,0
2016-12-11T04:49:52.682Z,0
2016-12-11T04:50:33.424Z,0
2016-12-11T04:51:14.200Z,0
2016-12-11T04:51:54.999Z,0
2016-12-11T04:52:35.775Z,0
2016-12-11T04:53:16.522Z,0
2016-12-11T04:53:57.295Z,0
2016-12-11T04:54:38.047Z,0
2016-12-11T04:55:18.792Z,0
2016-12-11T04:55:59.557Z,0
2016-12-11T04:56:40.328Z,0
2016-12-11T04:57:21.085Z,0
2016-12-11T04:58:01.850Z,0
2016-12-11T04:58:42.611Z,0
2016-12-11T04:59:23.390Z,0
2016-12-11T05:00:04.117Z,0
2016-12-11T05:00:44.896Z,0
2016-12-11T05:01:25.660Z,0
2016-12-11T05:02:06.429Z,0
2016-12-11T05:02:47.202Z,0
2016-12-11T05:03:27.959Z,0
2016-12-11T05:04:08.708Z,0
2016-12-11T05:04:49.448Z,0
2016-12-11T05:05:30.227Z,0
2016-12-11T05:06:10.986Z,0
2016-12-11T05:06:51.735Z,0
2016-12-11T05:07:32.484Z,0
2016-12-11T05:08:13.240Z,0
2016-12-11T05:08:54.025Z,0
2016-12-11T05:09:34.775Z,0
2016-12-11T05:10:15.513Z,0
2016-12-11T05:10:56.280Z,0
2016-12-11T05:11:37.036Z,0
2016-12-11T05:12:17.791Z,0
2016-12-11T05:12:58.578Z,0
2016-12-11T05:13:39.327Z,0
2016-12-11T05:14:20.089Z,0
2016-12-11T05:15:00.853Z,0
2016-12-11T05:15:41.646Z,0
2016-12-11T05:16:22.382Z,0
2016-12-11T05:17:03.170Z,0
2016-12-11T05:17:43.950Z,0
2016-12-11T05:18:24.704Z,0
2016-12-11T05:19:05.489Z,0
2016-12-11T05:19:46.272Z,0
2016-12-11T05:20:27.035Z,0
2016-12-11T05:21:07.779Z,0
2016-12-11T05:21:48.553Z,0
2016-12-11T05:22:29.327Z,0
2016-12-11T05:23:10.106Z,0
2016-12-11T05:23:50.867Z,0
2016-12-11T05:24:31.667Z,0
2016-12-11T05:25:12.421Z,0
2016-12-11T05:25:53.158Z,0
2016-12-11T05:26:33.937Z,0
2016-12-11T05:27:14.718Z,0
2016-12-11T05:27:55.502Z,0
2016-12-11T05:28:36.280Z,0
2016-12-11T05:29:17.050Z,0
2016-12-11T05:29:57.805Z,0
2016-12-11T05:30:38.543Z,0
2016-12-11T05:31:19.303Z,0
2016-12-11T05:32:00.076Z,0
2016-12-11T05:32:40.825Z,0
2016-12-11T05:33:21.604Z,0
2016-12-11T05:34:02.347Z,0
2016-12-11T05:34:43.114Z,0
2016-12-11T05:35:23.876Z,0
2016-12-11T05:36:04.644Z,0
2016-12-11T05:36:45.400Z,0
2016-12-11T05:37:26.163Z,0
2016-12-11T05:38:06.933Z,0
2016-12-11T05:38:47.695Z,0
2016-12-11T05:39:28.468Z,0
2016-12-11T05:40:09.220Z,0
2016-12-11T05:40:49.976Z,0
2016-12-11T05:41:30.753Z,0
2016-12-11T05:42:11.512Z,0
2016-12-11T05:42:52.279Z,0
2016-12-11T05:43:33.029Z,0
2016-12-11T05:44:13.787Z,0
2016-12-11T05:44:54.531Z,0
2016-12-11T05:45:35.309Z,0
2016-12-11T05:46:16.081Z,0
2016-12-11T05:46:56.848Z,0
2016-12-11T05:47:37.643Z,0
2016-12-11T05:48:18.381Z,0
2016-12-11T05:48:59.127Z,0
2016-12-11T05:49:39.888Z,0
2016-12-11T05:50:20.676Z,0
2016-12-11T05:51:01.450Z,0
2016-12-11T05:51:42.227Z,0
2016-12-11T05:52:22.998Z,0
2016-12-11T05:53:03.742Z,0
2016-12-11T05:53:44.494Z,0
2016-12-11T05:54:25.267Z,0
2016-12-11T05:55:06.021Z,0
2016-12-11T05:55:46.773Z,0
2016-12-11T05:56:27.573Z,0
2016-12-11T05:57:08.315Z,0
2016-12-11T05:57:49.091Z,0
2016-12-11T05:58:29.852Z,0
2016-12-11T05:59:10.605Z,0
2016-12-11T05:59:51.374Z,0
2016-12-11T06:00:32.150Z,0
2016-12-11T06:01:12.951Z,0
2016-12-11T06:01:53.692Z,0
2016-12-11T06:02:34.460Z,0
2016-12-11T06:03:15.248Z,0
2016-12-11T06:03:56.012Z,0
2016-12-11T06:04:36.774Z,0
2016-12-11T06:05:17.530Z,0
2016-12-11T06:05:58.263Z,0
2016-12-11T06:06:39.022Z,0
2016-12-11T06:07:19.783Z,0
2016-12-11T06:08:00.539Z,0
2016-12-11T06:08:41.317Z,0
2016-12-11T06:09:22.089Z,0
2016-12-11T06:10:02.830Z,0
2016-12-11T06:10:43.580Z,0
2016-12-11T06:11:24.359Z,0
2016-12-11T06:12:05.127Z,0
2016-12-11T06:12:45.888Z,0
2016-12-11T06:13:26.638Z,0
2016-12-11T06:14:07.388Z,0
2016-12-11T06:14:48.161Z,0
2016-12-11T06:15:28.913Z,0
2016-12-11T06:16:09.698Z,0
2016-12-11T06:16:50.469Z,0
2016-12-11T06:17:31.243Z,0
2016-12-11T06:18:11.986Z,0
2016-12-11T06:18:52.758Z,0
2016-12-11T06:19:33.517Z,0
2016-12-11T06:20:14.266Z,0
2016-12-11T06:20:55.051Z,0
2016-12-11T06:21:35.820Z,0
2016-12-11T06:22:16.561Z,0
2016-12-11T06:22:57.308Z,0
2016-12-11T06:23:38.070Z,0
2016-12-11T06:24:18.846Z,0
2016-12-11T06:24:59.613Z,0
2016-12-11T06:25:40.404Z,0
2016-12-11T06:26:21.182Z,0
2016-12-11T06:27:01.942Z,0
2016-12-11T06:27:42.712Z,0
2016-12-11T06:28:23.496Z,0
2016-12-11T06:29:04.240Z,0
2016-12-11T06:29:44.986Z,0
2016-12-11T06:30:25.751Z,0
2016-12-11T06:31:06.510Z,0
2016-12-11T06:31:47.281Z,0
2016-12-11T06:32:28.045Z,0
2016-12-11T06:33:08.807Z,0
2016-12-11T06:33:49.574Z,0
2016-12-11T06:34:30.343Z,0
2016-12-11T06:35:11.095Z,0
2016-12-11T06:35:51.825Z,0
2016-12-11T06:36:32.599Z,0
2016-12-11T06:37:13.372Z,0
2016-12-11T06:37:54.130Z,0
2016-12-11T06:38:34.894Z,0
2016-12-11T06:39:15.655Z,0
2016-12-11T06:39:56.418Z,0
2016-12-11T06:40:37.181Z,0
2016-12-11T06:41:17.949Z,0
2016-12-11T06:41:58.695Z,0
2016-12-11T06:42:39.452Z,0
2016-12-11T06:43:20.215Z,0
2016-12-11T06:44:00.973Z,0
2016-12-11T06:44:41.745Z,0
2016-12-11T06:45:22.483Z,0
2016-12-11T06:46:03.281Z,0
2016-12-11T06:46:44.042Z,0
2016-12-11T06:47:24.781Z,0
2016-12-11T06:48:05.553Z,0
2016-12-11T06:48:46.324Z,0
2016-12-11T06:49:27.075Z,0
2016-12-11T06:50:07.840Z,0
2016-12-11T06:50:48.633Z,0
2016-12-11T06:51:29.412Z,0
2016-12-11T06:52:10.178Z,0
2016-12-11T06:52:50.913Z,0
2016-12-11T06:53:31.673Z,0
2016-12-11T06:54:12.439Z,0
2016-12-11T06:54:53.189Z,0
2016-12-11T06:55:33.909Z,0
2016-12-11T06:56:14.697Z,0
2016-12-11T06:56:55.472Z,0
2016-12-11T06:57:36.243Z,0
2016-12-11T06:58:16.999Z,0
2016-12-11T06:58:57.739Z,0
2016-12-11T06:59:38.504Z,0
2016-12-11T07:00:19.276Z,0
2016-12-11T07:01:00.053Z,0
2016-12-11T07:01:40.803Z,0
2016-12-11T07:02:21.560Z,0
2016-12-11T07:03:02.310Z,0
2016-12-11T07:03:43.065Z,0
2016-12-11T07:04:23.805Z,0
2016-12-11T07:05:04.566Z,0
2016-12-11T07:05:45.316Z,0
2016-12-11T07:06:26.061Z,0
2016-12-11T07:07:06.818Z,0
2016-12-11T07:07:47.569Z,0
2016-12-11T07:08:28.330Z,0
2016-12-11T07:09:09.101Z,4
2016-12-11T07:09:49.844Z,4
2016-12-11T07:10:30.613Z,4
2016-12-11T07:11:11.374Z,4
2016-12-11T07:11:52.145Z,4
2016-12-11T07:12:32.896Z,4
2016-12-11T07:13:13.667Z,4
2016-12-11T07:13:54.454Z,0
2016-12-11T07:14:35.206Z,0
2016-12-11T07:15:15.976Z,0
2016-12-11T07:15:56.708Z,0
2016-12-11T07:16:37.474Z,0
2016-12-11T07:17:18.233Z,4
2016-12-11T07:17:59.000Z,4
2016-12-11T07:18:39.747Z,4
2016-12-11T07:19:20.515Z,4
2016-12-11T07:20:01.306Z,4
2016-12-11T07:20:42.070Z,0
2016-12-11T07:21:22.814Z,0
2016-12-11T07:22:03.576Z,4
2016-12-11T07:22:44.344Z,4
2016-12-11T07:23:25.100Z,4
2016-12-11T07:24:05.867Z,4
2016-12-11T07:24:46.621Z,4
2016-12-11T07:25:27.402Z,4
2016-12-11T07:26:08.172Z,4
2016-12-11T07:26:48.920Z,4
2016-12-11T07:27:29.679Z,4
2016-12-11T07:28:10.447Z,4
2016-12-11T07:28:51.206Z,8
2016-12-11T07:29:31.983Z,8
2016-12-11T07:30:12.725Z,4
2016-12-11T07:30:53.487Z,4
2016-12-11T07:31:34.278Z,4
2016-12-11T07:32:15.036Z,8
2016-12-11T07:32:55.794Z,4
2016-12-11T07:33:36.558Z,8
2016-12-11T07:34:17.321Z,4
2016-12-11T07:34:58.093Z,8
2016-12-11T07:35:38.866Z,4
2016-12-11T07:36:19.628Z,8
2016-12-11T07:37:00.375Z,8
2016-12-11T07:37:41.115Z,8
2016-12-11T07:38:21.884Z,8
2016-12-11T07:39:02.653Z,8
2016-12-11T07:39:43.388Z,8
2016-12-11T07:40:24.175Z,8
2016-12-11T07:41:04.916Z,8
2016-12-11T07:41:45.666Z,8
2016-12-11T07:42:26.431Z,8
2016-12-11T07:43:07.190Z,12
2016-12-11T07:43:47.957Z,8
2016-12-11T07:44:28.726Z,12
2016-12-11T07:45:09.481Z,12
2016-12-11T07:45:50.234Z,12
2016-12-11T07:46:31.009Z,12
2016-12-11T07:47:11.766Z,12
2016-12-11T07:47:52.531Z,12
2016-12-11T07:48:33.289Z,16
2016-12-11T07:49:14.039Z,16
2016-12-11T07:49:54.784Z,16
2016-12-11T07:50:35.543Z,12
2016-12-11T07:51:16.297Z,16
2016-12-11T07:51:57.077Z,16
2016-12-11T07:52:37.857Z,16
2016-12-11T07:53:18.599Z,16
2016-12-11T07:53:59.359Z,20
2016-12-11T07:54:40.115Z,20
2016-12-11T07:55:20.919Z,20
2016-12-11T07:56:01.698Z,20
2016-12-11T07:56:42.477Z,20
2016-12-11T07:57:23.242Z,20
2016-12-11T07:58:04.019Z,20
2016-12-11T07:58:44.782Z,20
2016-12-11T07:59:25.553Z,20
2016-12-11T08:00:06.322Z,24
2016-12-11T08:00:47.099Z,20
2016-12-11T08:01:27.865Z,24
2016-12-11T08:02:08.629Z,24
2016-12-11T08:02:49.371Z,24
2016-12-11T08:03:30.113Z,24
2016-12-11T08:04:10.882Z,24
2016-12-11T08:04:51.653Z,24
2016-12-11T08:05:32.420Z,24
2016-12-11T08:06:13.181Z,24
2016-12-11T08:06:53.954Z,28
2016-12-11T08:07:34.713Z,24
2016-12-11T08:08:15.487Z,28
2016-12-11T08:08:56.268Z,24
2016-12-11T08:09:37.020Z,24
2016-12-11T08:10:17.782Z,24
2016-12-11T08:10:58.554Z,24
2016-12-11T08:11:39.302Z,24
2016-12-11T08:12:20.053Z,24
2016-12-11T08:13:00.823Z,20
2016-12-11T08:13:41.556Z,20
2016-12-11T08:14:22.322Z,24
2016-12-11T08:15:03.091Z,20
2016-12-11T08:15:43.861Z,24
2016-12-11T08:16:24.619Z,24
2016-12-11T08:17:05.382Z,24
2016-12-11T08:17:46.182Z,24
2016-12-11T08:18:26.942Z,20
2016-12-11T08:19:07.711Z,24
2016-12-11T08:19:48.476Z,24
2016-12-11T08:20:29.227Z,24
2016-12-11T08:21:09.985Z,28
2016-12-11T08:21:50.741Z,24
2016-12-11T08:22:31.528Z,28
2016-12-11T08:23:12.277Z,24
2016-12-11T08:23:53.051Z,28
2016-12-11T08:24:33.812Z,28
2016-12-11T08:25:14.576Z,28
2016-12-11T08:25:55.346Z,28
2016-12-11T08:26:36.138Z,32
2016-12-11T08:27:16.895Z,28
2016-12-11T08:27:57.658Z,28
2016-12-11T08:28:38.436Z,32
2016-12-11T08:29:19.225Z,32
2016-12-11T08:29:59.996Z,32
2016-12-11T08:30:40.769Z,36
2016-12-11T08:31:21.548Z,32
2016-12-11T08:32:02.298Z,36
2016-12-11T08:32:43.066Z,36
2016-12-11T08:33:23.839Z,36
2016-12-11T08:34:04.581Z,36
2016-12-11T08:34:45.355Z,36
2016-12-11T08:35:26.132Z,36
2016-12-11T08:36:06.880Z,36
2016-12-11T08:36:47.629Z,36
2016-12-11T08:37:28.384Z,40
2016-12-11T08:38:09.141Z,36
2016-12-11T08:38:49.907Z,36
2016-12-11T08:39:30.683Z,40
2016-12-11T08:40:11.455Z,36
2016-12-11T08:40:52.240Z,40
2016-12-11T08:41:33.001Z,36
2016-12-11T08:42:13.767Z,40
2016-12-11T08:42:54.545Z,40
2016-12-11T08:43:35.333Z,40
2016-12-11T08:44:16.096Z,40
2016-12-11T08:44:56.862Z,40
2016-12-11T08:45:37.624Z,40
2016-12-11T08:46:18.403Z,44
2016-12-11T08:46:59.163Z,40
2016-12-11T08:47:39.921Z,40
2016-12-11T08:48:21.327Z,40
2016-12-11T08:49:02.093Z,40
2016-12-11T08:49:42.880Z,44
2016-12-11T08:50:23.634Z,44
2016-12-11T08:51:04.417Z,44
2016-12-11T08:51:45.139Z,44
2016-12-11T08:52:25.925Z,44
2016-12-11T08:53:06.721Z,44
2016-12-11T08:53:47.472Z,40
2016-12-11T08:54:28.256Z,44
2016-12-11T08:55:09.041Z,40
2016-12-11T08:55:49.823Z,40
2016-12-11T08:56:30.598Z,40
2016-12-11T08:57:11.334Z,44
2016-12-11T08:57:52.110Z,44
2016-12-11T08:58:32.907Z,44
2016-12-11T08:59:13.659Z,44
2016-12-11T08:59:54.404Z,44
2016-12-11T09:00:35.150Z,44
2016-12-11T09:01:15.919Z,44
2016-12-11T09:01:56.670Z,44
2016-12-11T09:02:37.436Z,44
2016-12-11T09:03:18.211Z,44
2016-12-11T09:03:58.973Z,44
2016-12-11T09:04:39.726Z,44
2016-12-11T09:05:20.472Z,44
2016-12-11T09:06:01.249Z,44
2016-12-11T09:06:41.991Z,44
2016-12-11T09:07:22.751Z,44
2016-12-11T09:08:03.514Z,36
2016-12-11T09:08:44.286Z,36
2016-12-11T09:09:25.099Z,40
2016-12-11T09:10:05.844Z,44
2016-12-11T09:10:46.612Z,48
2016-12-11T09:11:27.371Z,48
2016-12-11T09:12:08.119Z,44
2016-12-11T09:12:48.892Z,40
2016-12-11T09:13:29.638Z,40
2016-12-11T09:14:10.395Z,44
2016-12-11T09:14:51.204Z,44
2016-12-11T09:15:31.978Z,48
2016-12-11T09:16:12.744Z,48
2016-12-11T09:16:53.496Z,44
2016-12-11T09:17:34.263Z,44
2016-12-11T09:18:14.997Z,44
2016-12-11T09:18:55.779Z,44
2016-12-11T09:19:36.560Z,48
2016-12-11T09:20:17.306Z,44
2016-12-11T09:20:58.056Z,48
2016-12-11T09:21:38.845Z,48
2016-12-11T09:22:19.623Z,48
2016-12-11T09:23:00.388Z,48
2016-12-11T09:23:41.145Z,48
2016-12-11T09:24:21.902Z,48
2016-12-11T09:25:02.667Z,48
2016-12-11T09:25:43.420Z,48
2016-12-11T09:26:24.199Z,48
2016-12-11T09:27:04.934Z,48
2016-12-11T09:27:45.707Z,48
2016-12-11T09:28:26.443Z,48
2016-12-11T09:29:07.195Z,48
2016-12-11T09:29:47.953Z,48
2016-12-11T09:30:28.712Z,44
2016-12-11T09:31:09.505Z,44
2016-12-11T09:31:50.275Z,44
2016-12-11T09:32:31.037Z,44
2016-12-11T09:33:11.790Z,44
2016-12-11T09:33:52.573Z,44
2016-12-11T09:34:33.319Z,44
2016-12-11T09:35:14.089Z,44
2016-12-11T09:35:54.861Z,44
2016-12-11T09:36:35.626Z,44
2016-12-11T09:37:16.392Z,48
2016-12-11T09:37:57.171Z,44
2016-12-11T09:38:37.933Z,48
2016-12-11T09:39:18.678Z,44
2016-12-11T09:39:59.444Z,48
2016-12-11T09:40:40.192Z,48
2016-12-11T09:41:20.945Z,48
2016-12-11T09:42:01.717Z,48
2016-12-11T09:42:42.498Z,48
2016-12-11T09:43:23.258Z,48
2016-12-11T09:44:03.989Z,48
2016-12-11T09:44:44.747Z,52
2016-12-11T09:45:25.497Z,48
2016-12-11T09:46:06.244Z,52
2016-12-11T09:46:46.992Z,48
2016-12-11T09:47:27.751Z,48
2016-12-11T09:48:08.535Z,52
2016-12-11T09:48:49.282Z,52
2016-12-11T09:49:30.034Z,52
2016-12-11T09:50:10.809Z,48
2016-12-11T09:50:51.554Z,48
2016-12-11T09:51:32.319Z,48
2016-12-11T09:52:13.082Z,52
2016-12-11T09:52:53.824Z,48
2016-12-11T09:53:34.555Z,48
2016-12-11T09:54:15.304Z,48
2016-12-11T09:54:56.075Z,48
2016-12-11T09:55:36.825Z,48
2016-12-11T09:56:17.594Z,48
2016-12-11T09:56:58.337Z,52
2016-12-11T09:57:39.093Z,52